sensor_id;sensor_type;location;lat;lon;timestamp;P1;durP1;ratioP1;P2;durP2;ratioP2
54201;SDS011;40108;53.152;5.844;2022-12-18T00:02:00;60.27;;;24.57;;
54201;SDS011;40108;53.152;5.844;2022-12-18T00:04:29;63.20;;;28.13;;
54201;SDS011;40108;53.152;5.844;2022-12-18T00:07:00;67.90;;;28.53;;
54201;SDS011;40108;53.152;5.844;2022-12-18T00:09:36;74.87;;;30.73;;
54201;SDS011;40108;53.152;5.844;2022-12-18T00:12:07;84.27;;;31.10;;
54201;SDS011;40108;53.152;5.844;2022-12-18T00:14:35;85.40;;;33.30;;
54201;SDS011;40108;53.152;5.844;2022-12-18T00:17:01;82.67;;;32.93;;
54201;SDS011;40108;53.152;5.844;2022-12-18T00:19:27;96.77;;;35.50;;
54201;SDS011;40108;53.152;5.844;2022-12-18T00:21:53;71.53;;;28.13;;
54201;SDS011;40108;53.152;5.844;2022-12-18T00:24:23;65.17;;;26.70;;
54201;SDS011;40108;53.152;5.844;2022-12-18T00:26:51;112.20;;;42.20;;
54201;SDS011;40108;53.152;5.844;2022-12-18T00:29:17;84.43;;;31.53;;
54201;SDS011;40108;53.152;5.844;2022-12-18T00:31:43;90.87;;;33.93;;
54201;SDS011;40108;53.152;5.844;2022-12-18T00:34:10;69.50;;;27.83;;
54201;SDS011;40108;53.152;5.844;2022-12-18T00:36:39;75.07;;;31.00;;
54201;SDS011;40108;53.152;5.844;2022-12-18T00:39:09;79.63;;;29.97;;
54201;SDS011;40108;53.152;5.844;2022-12-18T00:41:36;90.17;;;33.77;;
54201;SDS011;40108;53.152;5.844;2022-12-18T00:44:20;56.73;;;22.70;;
54201;SDS011;40108;53.152;5.844;2022-12-18T00:46:46;75.20;;;29.17;;
54201;SDS011;40108;53.152;5.844;2022-12-18T00:49:19;101.70;;;39.07;;
54201;SDS011;40108;53.152;5.844;2022-12-18T00:51:50;58.95;;;22.00;;
54201;SDS011;40108;53.152;5.844;2022-12-18T00:54:16;95.50;;;34.43;;
54201;SDS011;40108;53.152;5.844;2022-12-18T00:56:42;90.93;;;34.50;;
54201;SDS011;40108;53.152;5.844;2022-12-18T00:59:11;95.83;;;35.93;;
54201;SDS011;40108;53.152;5.844;2022-12-18T01:01:37;87.80;;;35.53;;
54201;SDS011;40108;53.152;5.844;2022-12-18T01:04:05;83.03;;;30.57;;
54201;SDS011;40108;53.152;5.844;2022-12-18T01:06:34;75.40;;;27.47;;
54201;SDS011;40108;53.152;5.844;2022-12-18T01:09:00;100.20;;;38.30;;
54201;SDS011;40108;53.152;5.844;2022-12-18T01:11:25;110.73;;;39.83;;
54201;SDS011;40108;53.152;5.844;2022-12-18T01:13:53;83.40;;;31.80;;
54201;SDS011;40108;53.152;5.844;2022-12-18T01:16:20;79.87;;;29.20;;
54201;SDS011;40108;53.152;5.844;2022-12-18T01:18:51;98.53;;;34.60;;
54201;SDS011;40108;53.152;5.844;2022-12-18T01:21:22;78.60;;;30.07;;
54201;SDS011;40108;53.152;5.844;2022-12-18T01:23:53;89.93;;;32.93;;
54201;SDS011;40108;53.152;5.844;2022-12-18T01:26:20;57.13;;;21.77;;
54201;SDS011;40108;53.152;5.844;2022-12-18T01:28:48;78.13;;;28.80;;
54201;SDS011;40108;53.152;5.844;2022-12-18T01:31:18;82.00;;;27.90;;
54201;SDS011;40108;53.152;5.844;2022-12-18T01:33:50;108.50;;;37.57;;
54201;SDS011;40108;53.152;5.844;2022-12-18T01:38:59;100.33;;;34.90;;
54201;SDS011;40108;53.152;5.844;2022-12-18T01:41:29;87.43;;;30.80;;
54201;SDS011;40108;53.152;5.844;2022-12-18T01:49:52;67.80;;;23.67;;
54201;SDS011;40108;53.152;5.844;2022-12-18T01:52:26;97.57;;;34.40;;
54201;SDS011;40108;53.152;5.844;2022-12-18T01:55:02;103.53;;;35.63;;
54201;SDS011;40108;53.152;5.844;2022-12-18T01:57:30;72.23;;;27.43;;
54201;SDS011;40108;53.152;5.844;2022-12-18T02:00:01;96.37;;;34.57;;
54201;SDS011;40108;53.152;5.844;2022-12-18T02:02:32;103.78;;;33.45;;
54201;SDS011;40108;53.152;5.844;2022-12-18T02:05:01;103.43;;;35.93;;
54201;SDS011;40108;53.152;5.844;2022-12-18T02:07:34;94.30;;;31.50;;
54201;SDS011;40108;53.152;5.844;2022-12-18T02:13:00;99.67;;;34.20;;
54201;SDS011;40108;53.152;5.844;2022-12-18T02:15:43;105.20;;;34.83;;
54201;SDS011;40108;53.152;5.844;2022-12-18T02:18:19;86.47;;;31.07;;
54201;SDS011;40108;53.152;5.844;2022-12-18T02:23:56;102.20;;;32.47;;
54201;SDS011;40108;53.152;5.844;2022-12-18T02:29:21;102.07;;;34.20;;
54201;SDS011;40108;53.152;5.844;2022-12-18T02:31:57;73.00;;;27.70;;
54201;SDS011;40108;53.152;5.844;2022-12-18T02:36:58;72.77;;;26.43;;
54201;SDS011;40108;53.152;5.844;2022-12-18T02:39:30;52.73;;;19.47;;
54201;SDS011;40108;53.152;5.844;2022-12-18T02:42:00;54.67;;;22.00;;
54201;SDS011;40108;53.152;5.844;2022-12-18T02:44:32;73.33;;;26.90;;
54201;SDS011;40108;53.152;5.844;2022-12-18T02:47:00;88.93;;;28.87;;
54201;SDS011;40108;53.152;5.844;2022-12-18T02:57:34;88.80;;;30.67;;
54201;SDS011;40108;53.152;5.844;2022-12-18T03:00:39;87.93;;;30.30;;
54201;SDS011;40108;53.152;5.844;2022-12-18T03:03:23;76.10;;;25.90;;
54201;SDS011;40108;53.152;5.844;2022-12-18T03:06:05;92.73;;;32.23;;
54201;SDS011;40108;53.152;5.844;2022-12-18T03:08:43;86.87;;;29.27;;
54201;SDS011;40108;53.152;5.844;2022-12-18T03:11:17;81.60;;;27.27;;
54201;SDS011;40108;53.152;5.844;2022-12-18T03:14:05;61.80;;;24.33;;
54201;SDS011;40108;53.152;5.844;2022-12-18T03:16:36;91.00;;;31.87;;
54201;SDS011;40108;53.152;5.844;2022-12-18T03:19:05;79.23;;;26.63;;
54201;SDS011;40108;53.152;5.844;2022-12-18T03:21:45;66.30;;;23.30;;
54201;SDS011;40108;53.152;5.844;2022-12-18T03:24:13;81.97;;;28.67;;
54201;SDS011;40108;53.152;5.844;2022-12-18T03:26:40;112.43;;;35.70;;
54201;SDS011;40108;53.152;5.844;2022-12-18T03:29:17;89.03;;;29.40;;
54201;SDS011;40108;53.152;5.844;2022-12-18T03:31:49;76.37;;;22.00;;
54201;SDS011;40108;53.152;5.844;2022-12-18T03:34:21;95.65;;;28.98;;
54201;SDS011;40108;53.152;5.844;2022-12-18T03:36:54;103.90;;;32.20;;
54201;SDS011;40108;53.152;5.844;2022-12-18T03:39:20;82.33;;;27.03;;
54201;SDS011;40108;53.152;5.844;2022-12-18T03:44:34;74.03;;;25.03;;
54201;SDS011;40108;53.152;5.844;2022-12-18T03:52:41;93.27;;;29.70;;
54201;SDS011;40108;53.152;5.844;2022-12-18T03:55:13;78.87;;;27.50;;
54201;SDS011;40108;53.152;5.844;2022-12-18T03:57:39;81.13;;;25.23;;
54201;SDS011;40108;53.152;5.844;2022-12-18T04:00:08;78.40;;;26.40;;
54201;SDS011;40108;53.152;5.844;2022-12-18T04:02:37;85.13;;;28.00;;
54201;SDS011;40108;53.152;5.844;2022-12-18T04:05:07;95.77;;;30.27;;
54201;SDS011;40108;53.152;5.844;2022-12-18T04:07:37;95.60;;;32.37;;
54201;SDS011;40108;53.152;5.844;2022-12-18T04:10:05;84.97;;;30.77;;
54201;SDS011;40108;53.152;5.844;2022-12-18T04:12:33;82.53;;;29.63;;
54201;SDS011;40108;53.152;5.844;2022-12-18T04:15:01;81.77;;;29.27;;
54201;SDS011;40108;53.152;5.844;2022-12-18T04:17:27;105.80;;;35.63;;
54201;SDS011;40108;53.152;5.844;2022-12-18T04:19:53;99.97;;;32.27;;
54201;SDS011;40108;53.152;5.844;2022-12-18T04:22:18;110.37;;;36.80;;
54201;SDS011;40108;53.152;5.844;2022-12-18T04:24:44;105.63;;;34.53;;
54201;SDS011;40108;53.152;5.844;2022-12-18T04:27:10;98.57;;;31.87;;
54201;SDS011;40108;53.152;5.844;2022-12-18T04:29:36;101.80;;;33.77;;
54201;SDS011;40108;53.152;5.844;2022-12-18T04:32:04;113.50;;;37.13;;
54201;SDS011;40108;53.152;5.844;2022-12-18T04:34:30;118.13;;;35.60;;
54201;SDS011;40108;53.152;5.844;2022-12-18T04:37:00;110.33;;;36.53;;
54201;SDS011;40108;53.152;5.844;2022-12-18T04:39:26;117.80;;;38.70;;
54201;SDS011;40108;53.152;5.844;2022-12-18T04:41:52;99.67;;;32.77;;
54201;SDS011;40108;53.152;5.844;2022-12-18T04:44:17;101.63;;;35.43;;
54201;SDS011;40108;53.152;5.844;2022-12-18T04:46:43;100.37;;;35.13;;
54201;SDS011;40108;53.152;5.844;2022-12-18T04:49:11;123.73;;;39.87;;
54201;SDS011;40108;53.152;5.844;2022-12-18T04:51:37;97.07;;;33.77;;
54201;SDS011;40108;53.152;5.844;2022-12-18T04:54:03;98.97;;;33.70;;
54201;SDS011;40108;53.152;5.844;2022-12-18T04:56:30;92.87;;;32.67;;
54201;SDS011;40108;53.152;5.844;2022-12-18T04:58:57;87.90;;;29.00;;
54201;SDS011;40108;53.152;5.844;2022-12-18T05:01:22;100.33;;;33.30;;
54201;SDS011;40108;53.152;5.844;2022-12-18T05:03:48;77.63;;;27.83;;
54201;SDS011;40108;53.152;5.844;2022-12-18T05:06:15;99.87;;;34.53;;
54201;SDS011;40108;53.152;5.844;2022-12-18T05:08:41;105.20;;;34.80;;
54201;SDS011;40108;53.152;5.844;2022-12-18T05:11:11;95.23;;;32.57;;
54201;SDS011;40108;53.152;5.844;2022-12-18T05:13:40;96.60;;;34.87;;
54201;SDS011;40108;53.152;5.844;2022-12-18T05:16:09;86.13;;;30.53;;
54201;SDS011;40108;53.152;5.844;2022-12-18T05:18:36;89.43;;;31.80;;
54201;SDS011;40108;53.152;5.844;2022-12-18T05:21:01;83.03;;;29.37;;
54201;SDS011;40108;53.152;5.844;2022-12-18T05:23:28;106.77;;;32.67;;
54201;SDS011;40108;53.152;5.844;2022-12-18T05:25:54;88.87;;;30.97;;
54201;SDS011;40108;53.152;5.844;2022-12-18T05:28:24;88.47;;;28.57;;
54201;SDS011;40108;53.152;5.844;2022-12-18T05:30:52;76.27;;;25.33;;
54201;SDS011;40108;53.152;5.844;2022-12-18T05:33:22;82.17;;;29.37;;
54201;SDS011;40108;53.152;5.844;2022-12-18T05:35:56;88.87;;;31.90;;
54201;SDS011;40108;53.152;5.844;2022-12-18T05:38:23;80.57;;;28.07;;
54201;SDS011;40108;53.152;5.844;2022-12-18T05:40:50;102.30;;;35.77;;
54201;SDS011;40108;53.152;5.844;2022-12-18T05:43:17;90.10;;;33.03;;
54201;SDS011;40108;53.152;5.844;2022-12-18T05:45:44;92.70;;;33.37;;
54201;SDS011;40108;53.152;5.844;2022-12-18T05:48:10;93.37;;;30.93;;
54201;SDS011;40108;53.152;5.844;2022-12-18T05:50:38;89.53;;;31.73;;
54201;SDS011;40108;53.152;5.844;2022-12-18T05:53:05;73.33;;;27.40;;
54201;SDS011;40108;53.152;5.844;2022-12-18T05:55:34;91.93;;;32.27;;
54201;SDS011;40108;53.152;5.844;2022-12-18T05:58:01;77.03;;;29.50;;
54201;SDS011;40108;53.152;5.844;2022-12-18T06:00:29;88.60;;;30.70;;
54201;SDS011;40108;53.152;5.844;2022-12-18T06:02:55;71.57;;;24.63;;
54201;SDS011;40108;53.152;5.844;2022-12-18T06:05:21;69.33;;;25.90;;
54201;SDS011;40108;53.152;5.844;2022-12-18T06:07:47;78.67;;;27.47;;
54201;SDS011;40108;53.152;5.844;2022-12-18T06:10:12;70.43;;;28.00;;
54201;SDS011;40108;53.152;5.844;2022-12-18T06:12:38;62.80;;;25.43;;
54201;SDS011;40108;53.152;5.844;2022-12-18T06:15:04;65.23;;;23.20;;
54201;SDS011;40108;53.152;5.844;2022-12-18T06:17:31;70.90;;;27.03;;
54201;SDS011;40108;53.152;5.844;2022-12-18T06:19:57;67.20;;;26.57;;
54201;SDS011;40108;53.152;5.844;2022-12-18T06:22:24;71.03;;;27.73;;
54201;SDS011;40108;53.152;5.844;2022-12-18T06:24:50;71.70;;;27.57;;
54201;SDS011;40108;53.152;5.844;2022-12-18T06:27:15;65.63;;;25.97;;
54201;SDS011;40108;53.152;5.844;2022-12-18T06:29:41;62.60;;;23.57;;
54201;SDS011;40108;53.152;5.844;2022-12-18T06:32:07;63.57;;;24.27;;
54201;SDS011;40108;53.152;5.844;2022-12-18T06:34:33;70.63;;;27.00;;
54201;SDS011;40108;53.152;5.844;2022-12-18T06:37:01;82.17;;;27.80;;
54201;SDS011;40108;53.152;5.844;2022-12-18T06:39:27;81.87;;;28.40;;
54201;SDS011;40108;53.152;5.844;2022-12-18T06:41:53;67.57;;;23.63;;
54201;SDS011;40108;53.152;5.844;2022-12-18T06:44:19;68.17;;;23.50;;
54201;SDS011;40108;53.152;5.844;2022-12-18T06:46:45;65.93;;;23.50;;
54201;SDS011;40108;53.152;5.844;2022-12-18T06:49:11;60.23;;;23.27;;
54201;SDS011;40108;53.152;5.844;2022-12-18T06:51:37;63.57;;;24.20;;
54201;SDS011;40108;53.152;5.844;2022-12-18T06:54:03;65.93;;;24.73;;
54201;SDS011;40108;53.152;5.844;2022-12-18T06:56:29;66.60;;;24.47;;
54201;SDS011;40108;53.152;5.844;2022-12-18T06:58:55;59.73;;;22.20;;
54201;SDS011;40108;53.152;5.844;2022-12-18T07:01:21;53.83;;;21.03;;
54201;SDS011;40108;53.152;5.844;2022-12-18T07:03:51;61.90;;;23.20;;
54201;SDS011;40108;53.152;5.844;2022-12-18T07:06:21;46.37;;;18.00;;
54201;SDS011;40108;53.152;5.844;2022-12-18T07:08:49;56.47;;;19.47;;
54201;SDS011;40108;53.152;5.844;2022-12-18T07:11:16;54.47;;;23.07;;
54201;SDS011;40108;53.152;5.844;2022-12-18T07:13:43;47.03;;;18.87;;
54201;SDS011;40108;53.152;5.844;2022-12-18T07:16:11;55.33;;;21.07;;
54201;SDS011;40108;53.152;5.844;2022-12-18T07:18:39;45.03;;;18.70;;
54201;SDS011;40108;53.152;5.844;2022-12-18T07:21:05;49.43;;;19.73;;
54201;SDS011;40108;53.152;5.844;2022-12-18T07:23:33;44.47;;;18.40;;
54201;SDS011;40108;53.152;5.844;2022-12-18T07:26:03;49.10;;;19.23;;
54201;SDS011;40108;53.152;5.844;2022-12-18T07:28:33;47.80;;;19.50;;
54201;SDS011;40108;53.152;5.844;2022-12-18T07:31:03;48.33;;;20.73;;
54201;SDS011;40108;53.152;5.844;2022-12-18T07:33:33;54.60;;;22.00;;
54201;SDS011;40108;53.152;5.844;2022-12-18T07:35:59;52.80;;;20.90;;
54201;SDS011;40108;53.152;5.844;2022-12-18T07:38:30;43.93;;;20.40;;
54201;SDS011;40108;53.152;5.844;2022-12-18T07:41:03;33.17;;;15.47;;
54201;SDS011;40108;53.152;5.844;2022-12-18T07:43:30;42.63;;;19.67;;
54201;SDS011;40108;53.152;5.844;2022-12-18T07:45:55;44.83;;;14.03;;
54201;SDS011;40108;53.152;5.844;2022-12-18T07:48:21;51.53;;;22.40;;
54201;SDS011;40108;53.152;5.844;2022-12-18T07:50:47;43.47;;;18.47;;
54201;SDS011;40108;53.152;5.844;2022-12-18T07:53:13;49.50;;;20.70;;
54201;SDS011;40108;53.152;5.844;2022-12-18T07:55:41;48.77;;;20.60;;
54201;SDS011;40108;53.152;5.844;2022-12-18T07:58:08;48.60;;;20.00;;
54201;SDS011;40108;53.152;5.844;2022-12-18T08:00:34;45.93;;;20.30;;
54201;SDS011;40108;53.152;5.844;2022-12-18T08:03:00;46.73;;;18.97;;
54201;SDS011;40108;53.152;5.844;2022-12-18T08:05:26;51.70;;;20.53;;
54201;SDS011;40108;53.152;5.844;2022-12-18T08:07:52;46.33;;;21.67;;
54201;SDS011;40108;53.152;5.844;2022-12-18T08:10:19;50.47;;;20.47;;
54201;SDS011;40108;53.152;5.844;2022-12-18T08:12:48;41.17;;;17.37;;
54201;SDS011;40108;53.152;5.844;2022-12-18T08:15:14;35.43;;;16.53;;
54201;SDS011;40108;53.152;5.844;2022-12-18T08:17:40;44.33;;;18.97;;
54201;SDS011;40108;53.152;5.844;2022-12-18T08:20:06;56.60;;;21.03;;
54201;SDS011;40108;53.152;5.844;2022-12-18T08:22:35;44.30;;;19.50;;
54201;SDS011;40108;53.152;5.844;2022-12-18T08:25:02;44.27;;;18.50;;
54201;SDS011;40108;53.152;5.844;2022-12-18T08:27:31;43.27;;;17.57;;
54201;SDS011;40108;53.152;5.844;2022-12-18T08:29:57;34.03;;;15.17;;
54201;SDS011;40108;53.152;5.844;2022-12-18T08:32:23;37.87;;;15.87;;
54201;SDS011;40108;53.152;5.844;2022-12-18T08:34:50;32.77;;;14.67;;
54201;SDS011;40108;53.152;5.844;2022-12-18T08:37:16;31.20;;;15.00;;
54201;SDS011;40108;53.152;5.844;2022-12-18T08:39:42;24.00;;;12.83;;
54201;SDS011;40108;53.152;5.844;2022-12-18T08:42:08;35.67;;;16.33;;
54201;SDS011;40108;53.152;5.844;2022-12-18T08:44:55;34.77;;;14.83;;
54201;SDS011;40108;53.152;5.844;2022-12-18T08:47:23;40.67;;;17.17;;
54201;SDS011;40108;53.152;5.844;2022-12-18T08:49:51;42.83;;;19.77;;
54201;SDS011;40108;53.152;5.844;2022-12-18T08:52:19;34.43;;;17.00;;
54201;SDS011;40108;53.152;5.844;2022-12-18T08:54:56;31.10;;;15.60;;
54201;SDS011;40108;53.152;5.844;2022-12-18T08:57:22;37.13;;;18.47;;
54201;SDS011;40108;53.152;5.844;2022-12-18T08:59:48;36.43;;;15.67;;
54201;SDS011;40108;53.152;5.844;2022-12-18T09:02:22;36.97;;;17.20;;
54201;SDS011;40108;53.152;5.844;2022-12-18T09:04:51;36.70;;;18.43;;
54201;SDS011;40108;53.152;5.844;2022-12-18T09:07:17;41.10;;;19.50;;
54201;SDS011;40108;53.152;5.844;2022-12-18T09:09:46;40.00;;;18.13;;
54201;SDS011;40108;53.152;5.844;2022-12-18T09:12:14;38.87;;;18.50;;
54201;SDS011;40108;53.152;5.844;2022-12-18T09:14:40;50.50;;;21.23;;
54201;SDS011;40108;53.152;5.844;2022-12-18T09:17:06;39.00;;;16.17;;
54201;SDS011;40108;53.152;5.844;2022-12-18T09:19:41;45.80;;;21.20;;
54201;SDS011;40108;53.152;5.844;2022-12-18T09:22:19;44.13;;;19.60;;
54201;SDS011;40108;53.152;5.844;2022-12-18T09:24:45;33.80;;;17.47;;
54201;SDS011;40108;53.152;5.844;2022-12-18T09:27:16;41.60;;;18.70;;
54201;SDS011;40108;53.152;5.844;2022-12-18T09:29:42;38.23;;;19.07;;
54201;SDS011;40108;53.152;5.844;2022-12-18T09:32:08;35.33;;;15.50;;
54201;SDS011;40108;53.152;5.844;2022-12-18T09:34:35;35.00;;;17.17;;
54201;SDS011;40108;53.152;5.844;2022-12-18T09:37:01;34.97;;;17.40;;
54201;SDS011;40108;53.152;5.844;2022-12-18T09:39:27;34.60;;;16.53;;
54201;SDS011;40108;53.152;5.844;2022-12-18T09:41:57;33.13;;;17.63;;
54201;SDS011;40108;53.152;5.844;2022-12-18T09:44:24;33.97;;;15.10;;
54201;SDS011;40108;53.152;5.844;2022-12-18T09:47:13;34.07;;;15.87;;
54201;SDS011;40108;53.152;5.844;2022-12-18T09:49:42;39.37;;;17.47;;
54201;SDS011;40108;53.152;5.844;2022-12-18T09:52:34;31.33;;;15.30;;
54201;SDS011;40108;53.152;5.844;2022-12-18T09:55:22;30.97;;;16.17;;
54201;SDS011;40108;53.152;5.844;2022-12-18T09:58:02;32.30;;;14.87;;
54201;SDS011;40108;53.152;5.844;2022-12-18T10:00:53;26.73;;;13.83;;
54201;SDS011;40108;53.152;5.844;2022-12-18T10:03:20;27.23;;;14.52;;
54201;SDS011;40108;53.152;5.844;2022-12-18T10:08:56;25.13;;;13.97;;
54201;SDS011;40108;53.152;5.844;2022-12-18T10:11:44;25.87;;;13.53;;
54201;SDS011;40108;53.152;5.844;2022-12-18T10:14:23;27.63;;;14.30;;
54201;SDS011;40108;53.152;5.844;2022-12-18T10:17:06;23.13;;;13.60;;
54201;SDS011;40108;53.152;5.844;2022-12-18T10:19:42;26.88;;;13.77;;
54201;SDS011;40108;53.152;5.844;2022-12-18T10:25:03;24.05;;;13.38;;
54201;SDS011;40108;53.152;5.844;2022-12-18T10:27:46;22.30;;;10.82;;
54201;SDS011;40108;53.152;5.844;2022-12-18T10:30:13;24.35;;;12.98;;
54201;SDS011;40108;53.152;5.844;2022-12-18T10:32:46;24.07;;;12.80;;
54201;SDS011;40108;53.152;5.844;2022-12-18T10:35:24;22.03;;;12.57;;
54201;SDS011;40108;53.152;5.844;2022-12-18T10:41:04;20.03;;;11.03;;
54201;SDS011;40108;53.152;5.844;2022-12-18T10:47:11;20.47;;;11.57;;
54201;SDS011;40108;53.152;5.844;2022-12-18T10:49:49;24.73;;;14.13;;
54201;SDS011;40108;53.152;5.844;2022-12-18T10:52:24;27.17;;;16.42;;
54201;SDS011;40108;53.152;5.844;2022-12-18T10:54:59;26.02;;;15.00;;
54201;SDS011;40108;53.152;5.844;2022-12-18T10:57:35;17.02;;;10.25;;
54201;SDS011;40108;53.152;5.844;2022-12-18T11:02:44;19.17;;;10.37;;
54201;SDS011;40108;53.152;5.844;2022-12-18T11:05:30;14.23;;;8.45;;
54201;SDS011;40108;53.152;5.844;2022-12-18T11:08:05;17.73;;;9.73;;
54201;SDS011;40108;53.152;5.844;2022-12-18T11:10:47;14.25;;;8.45;;
54201;SDS011;40108;53.152;5.844;2022-12-18T11:13:17;15.27;;;9.57;;
54201;SDS011;40108;53.152;5.844;2022-12-18T11:20:51;13.43;;;8.10;;
54201;SDS011;40108;53.152;5.844;2022-12-18T11:23:21;14.85;;;9.20;;
54201;SDS011;40108;53.152;5.844;2022-12-18T11:25:59;15.70;;;8.63;;
54201;SDS011;40108;53.152;5.844;2022-12-18T11:33:41;17.98;;;10.70;;
54201;SDS011;40108;53.152;5.844;2022-12-18T11:36:11;16.37;;;10.20;;
54201;SDS011;40108;53.152;5.844;2022-12-18T11:38:40;17.02;;;10.05;;
54201;SDS011;40108;53.152;5.844;2022-12-18T11:44:10;15.85;;;9.90;;
54201;SDS011;40108;53.152;5.844;2022-12-18T11:46:49;16.45;;;8.13;;
54201;SDS011;40108;53.152;5.844;2022-12-18T11:49:28;16.38;;;9.52;;
54201;SDS011;40108;53.152;5.844;2022-12-18T11:52:21;17.52;;;9.80;;
54201;SDS011;40108;53.152;5.844;2022-12-18T11:54:57;16.13;;;8.95;;
54201;SDS011;40108;53.152;5.844;2022-12-18T12:00:33;17.20;;;9.13;;
54201;SDS011;40108;53.152;5.844;2022-12-18T12:03:18;10.68;;;6.22;;
54201;SDS011;40108;53.152;5.844;2022-12-18T12:06:08;16.88;;;8.82;;
54201;SDS011;40108;53.152;5.844;2022-12-18T12:09:04;17.17;;;10.33;;
54201;SDS011;40108;53.152;5.844;2022-12-18T12:30:09;14.00;;;8.10;;
54201;SDS011;40108;53.152;5.844;2022-12-18T12:33:04;14.80;;;8.85;;
54201;SDS011;40108;53.152;5.844;2022-12-18T12:38:28;19.70;;;11.10;;
54201;SDS011;40108;53.152;5.844;2022-12-18T12:41:09;20.33;;;12.15;;
54201;SDS011;40108;53.152;5.844;2022-12-18T12:44:01;15.98;;;8.55;;
54201;SDS011;40108;53.152;5.844;2022-12-18T12:46:32;15.55;;;7.88;;
54201;SDS011;40108;53.152;5.844;2022-12-18T12:49:07;12.75;;;6.75;;
54201;SDS011;40108;53.152;5.844;2022-12-18T12:51:41;11.60;;;6.95;;
54201;SDS011;40108;53.152;5.844;2022-12-18T12:54:12;14.35;;;7.63;;
54201;SDS011;40108;53.152;5.844;2022-12-18T12:56:57;12.43;;;7.32;;
54201;SDS011;40108;53.152;5.844;2022-12-18T13:08:21;15.20;;;7.95;;
54201;SDS011;40108;53.152;5.844;2022-12-18T13:10:51;13.40;;;8.65;;
54201;SDS011;40108;53.152;5.844;2022-12-18T13:13:55;13.10;;;7.80;;
54201;SDS011;40108;53.152;5.844;2022-12-18T13:16:24;14.57;;;8.05;;
54201;SDS011;40108;53.152;5.844;2022-12-18T13:18:55;15.43;;;8.18;;
54201;SDS011;40108;53.152;5.844;2022-12-18T13:21:30;17.23;;;9.25;;
54201;SDS011;40108;53.152;5.844;2022-12-18T13:24:15;14.95;;;9.65;;
54201;SDS011;40108;53.152;5.844;2022-12-18T13:26:48;12.07;;;6.55;;
54201;SDS011;40108;53.152;5.844;2022-12-18T13:29:39;14.02;;;8.98;;
54201;SDS011;40108;53.152;5.844;2022-12-18T13:32:20;16.20;;;9.13;;
54201;SDS011;40108;53.152;5.844;2022-12-18T13:34:47;13.85;;;9.00;;
54201;SDS011;40108;53.152;5.844;2022-12-18T13:37:58;17.73;;;11.05;;
54201;SDS011;40108;53.152;5.844;2022-12-18T13:40:48;19.85;;;11.98;;
54201;SDS011;40108;53.152;5.844;2022-12-18T13:45:49;15.05;;;9.27;;
54201;SDS011;40108;53.152;5.844;2022-12-18T13:48:41;12.25;;;7.70;;
54201;SDS011;40108;53.152;5.844;2022-12-18T13:51:19;12.25;;;7.43;;
54201;SDS011;40108;53.152;5.844;2022-12-18T13:53:50;15.95;;;8.98;;
54201;SDS011;40108;53.152;5.844;2022-12-18T13:56:42;13.10;;;8.02;;
54201;SDS011;40108;53.152;5.844;2022-12-18T14:09:49;14.38;;;7.90;;
54201;SDS011;40108;53.152;5.844;2022-12-18T14:12:21;11.70;;;7.13;;
54201;SDS011;40108;53.152;5.844;2022-12-18T14:15:19;11.45;;;7.13;;
54201;SDS011;40108;53.152;5.844;2022-12-18T14:20:27;9.82;;;6.50;;
54201;SDS011;40108;53.152;5.844;2022-12-18T14:22:55;12.80;;;8.38;;
54201;SDS011;40108;53.152;5.844;2022-12-18T14:25:23;13.93;;;7.15;;
54201;SDS011;40108;53.152;5.844;2022-12-18T14:27:52;10.90;;;7.07;;
54201;SDS011;40108;53.152;5.844;2022-12-18T14:30:27;9.10;;;6.50;;
54201;SDS011;40108;53.152;5.844;2022-12-18T14:33:03;11.65;;;5.85;;
54201;SDS011;40108;53.152;5.844;2022-12-18T14:35:31;9.75;;;6.28;;
54201;SDS011;40108;53.152;5.844;2022-12-18T14:38:09;12.77;;;7.20;;
54201;SDS011;40108;53.152;5.844;2022-12-18T14:40:41;10.95;;;6.97;;
54201;SDS011;40108;53.152;5.844;2022-12-18T14:43:11;12.32;;;7.18;;
54201;SDS011;40108;53.152;5.844;2022-12-18T14:45:43;12.53;;;7.23;;
54201;SDS011;40108;53.152;5.844;2022-12-18T14:50:41;13.52;;;6.78;;
54201;SDS011;40108;53.152;5.844;2022-12-18T14:53:20;13.95;;;7.55;;
54201;SDS011;40108;53.152;5.844;2022-12-18T14:55:52;11.73;;;5.93;;
54201;SDS011;40108;53.152;5.844;2022-12-18T14:58:21;16.45;;;7.70;;
54201;SDS011;40108;53.152;5.844;2022-12-18T15:00:47;10.85;;;6.35;;
54201;SDS011;40108;53.152;5.844;2022-12-18T15:03:15;8.02;;;5.47;;
54201;SDS011;40108;53.152;5.844;2022-12-18T15:05:44;8.05;;;4.88;;
54201;SDS011;40108;53.152;5.844;2022-12-18T15:08:30;10.30;;;6.10;;
54201;SDS011;40108;53.152;5.844;2022-12-18T15:11:02;9.02;;;5.13;;
54201;SDS011;40108;53.152;5.844;2022-12-18T15:13:28;6.53;;;4.22;;
54201;SDS011;40108;53.152;5.844;2022-12-18T15:15:55;9.73;;;5.18;;
54201;SDS011;40108;53.152;5.844;2022-12-18T15:18:27;9.13;;;5.15;;
54201;SDS011;40108;53.152;5.844;2022-12-18T15:20:58;9.23;;;5.43;;
54201;SDS011;40108;53.152;5.844;2022-12-18T15:26:07;9.65;;;5.97;;
54201;SDS011;40108;53.152;5.844;2022-12-18T15:34:09;9.23;;;5.15;;
54201;SDS011;40108;53.152;5.844;2022-12-18T15:36:34;8.00;;;4.25;;
54201;SDS011;40108;53.152;5.844;2022-12-18T15:39:03;11.07;;;6.22;;
54201;SDS011;40108;53.152;5.844;2022-12-18T15:41:33;8.32;;;5.10;;
54201;SDS011;40108;53.152;5.844;2022-12-18T15:50:30;11.15;;;7.43;;
54201;SDS011;40108;53.152;5.844;2022-12-18T16:23:37;10.35;;;5.90;;
54201;SDS011;40108;53.152;5.844;2022-12-18T16:26:09;10.32;;;5.95;;
54201;SDS011;40108;53.152;5.844;2022-12-18T16:28:38;9.98;;;5.53;;
54201;SDS011;40108;53.152;5.844;2022-12-18T16:35:48;9.43;;;6.50;;
54201;SDS011;40108;53.152;5.844;2022-12-18T16:41:06;12.43;;;7.10;;
54201;SDS011;40108;53.152;5.844;2022-12-18T16:48:01;9.80;;;5.55;;
54201;SDS011;40108;53.152;5.844;2022-12-18T16:51:01;10.63;;;5.68;;
54201;SDS011;40108;53.152;5.844;2022-12-18T16:53:28;13.60;;;6.93;;
54201;SDS011;40108;53.152;5.844;2022-12-18T16:55:54;10.48;;;7.10;;
54201;SDS011;40108;53.152;5.844;2022-12-18T16:58:29;11.85;;;6.43;;
54201;SDS011;40108;53.152;5.844;2022-12-18T17:00:57;12.20;;;6.43;;
54201;SDS011;40108;53.152;5.844;2022-12-18T17:03:34;11.15;;;6.80;;
54201;SDS011;40108;53.152;5.844;2022-12-18T17:06:06;11.85;;;6.97;;
54201;SDS011;40108;53.152;5.844;2022-12-18T17:08:58;11.98;;;7.05;;
54201;SDS011;40108;53.152;5.844;2022-12-18T17:11:29;11.82;;;6.88;;
54201;SDS011;40108;53.152;5.844;2022-12-18T17:14:08;10.25;;;6.43;;
54201;SDS011;40108;53.152;5.844;2022-12-18T17:16:41;11.50;;;6.00;;
54201;SDS011;40108;53.152;5.844;2022-12-18T17:19:14;9.60;;;5.38;;
54201;SDS011;40108;53.152;5.844;2022-12-18T17:22:12;9.60;;;6.07;;
54201;SDS011;40108;53.152;5.844;2022-12-18T17:24:58;8.32;;;4.97;;
54201;SDS011;40108;53.152;5.844;2022-12-18T17:42:16;12.20;;;6.88;;
54201;SDS011;40108;53.152;5.844;2022-12-18T17:44:43;9.68;;;6.18;;
54201;SDS011;40108;53.152;5.844;2022-12-18T17:47:11;12.05;;;6.75;;
54201;SDS011;40108;53.152;5.844;2022-12-18T17:49:42;14.25;;;8.35;;
54201;SDS011;40108;53.152;5.844;2022-12-18T17:52:10;10.45;;;6.82;;
54201;SDS011;40108;53.152;5.844;2022-12-18T17:54:36;11.85;;;7.13;;
54201;SDS011;40108;53.152;5.844;2022-12-18T17:57:05;14.70;;;8.00;;
54201;SDS011;40108;53.152;5.844;2022-12-18T17:59:43;10.65;;;7.07;;